sensor_id;sensor_type;location;lat;lon;timestamp;P1;durP1;ratioP1;P2;durP2;ratioP2
78404;SDS011;67689;43.592;1.418;2023-03-11T00:01:57;9.93;;;2.60;;
78404;SDS011;67689;43.592;1.418;2023-03-11T00:04:22;12.18;;;2.63;;
78404;SDS011;67689;43.592;1.418;2023-03-11T00:06:47;9.52;;;2.83;;
78404;SDS011;67689;43.592;1.418;2023-03-11T00:09:13;15.60;;;3.13;;
78404;SDS011;67689;43.592;1.418;2023-03-11T00:11:38;13.85;;;2.70;;
78404;SDS011;67689;43.592;1.418;2023-03-11T00:14:04;9.80;;;2.65;;
78404;SDS011;67689;43.592;1.418;2023-03-11T00:16:29;12.75;;;2.63;;
78404;SDS011;67689;43.592;1.418;2023-03-11T00:18:54;9.57;;;2.70;;
78404;SDS011;67689;43.592;1.418;2023-03-11T00:21:20;9.55;;;2.50;;
78404;SDS011;67689;43.592;1.418;2023-03-11T00:23:45;12.02;;;2.53;;
78404;SDS011;67689;43.592;1.418;2023-03-11T00:26:11;8.85;;;2.40;;
78404;SDS011;67689;43.592;1.418;2023-03-11T00:28:37;12.18;;;2.55;;
78404;SDS011;67689;43.592;1.418;2023-03-11T00:31:02;8.98;;;2.25;;
78404;SDS011;67689;43.592;1.418;2023-03-11T00:33:28;15.23;;;2.83;;
78404;SDS011;67689;43.592;1.418;2023-03-11T00:35:54;13.25;;;3.00;;
78404;SDS011;67689;43.592;1.418;2023-03-11T00:38:19;12.70;;;3.03;;
78404;SDS011;67689;43.592;1.418;2023-03-11T00:40:46;12.23;;;2.28;;
78404;SDS011;67689;43.592;1.418;2023-03-11T00:43:11;11.90;;;2.78;;
78404;SDS011;67689;43.592;1.418;2023-03-11T00:45:37;13.43;;;2.63;;
78404;SDS011;67689;43.592;1.418;2023-03-11T00:48:03;8.40;;;2.33;;
78404;SDS011;67689;43.592;1.418;2023-03-11T00:50:30;9.32;;;2.55;;
78404;SDS011;67689;43.592;1.418;2023-03-11T00:52:57;10.20;;;2.47;;
78404;SDS011;67689;43.592;1.418;2023-03-11T00:55:24;10.55;;;2.83;;
78404;SDS011;67689;43.592;1.418;2023-03-11T00:57:54;13.43;;;3.10;;
78404;SDS011;67689;43.592;1.418;2023-03-11T01:00:21;11.32;;;2.78;;
78404;SDS011;67689;43.592;1.418;2023-03-11T01:02:47;9.52;;;2.65;;
78404;SDS011;67689;43.592;1.418;2023-03-11T01:05:12;11.40;;;2.72;;
78404;SDS011;67689;43.592;1.418;2023-03-11T01:07:38;14.23;;;2.90;;
78404;SDS011;67689;43.592;1.418;2023-03-11T01:10:04;10.82;;;2.53;;
78404;SDS011;67689;43.592;1.418;2023-03-11T01:12:31;8.52;;;2.33;;
78404;SDS011;67689;43.592;1.418;2023-03-11T01:14:57;13.60;;;2.90;;
78404;SDS011;67689;43.592;1.418;2023-03-11T01:17:22;11.13;;;2.60;;
78404;SDS011;67689;43.592;1.418;2023-03-11T01:19:48;15.20;;;2.85;;
78404;SDS011;67689;43.592;1.418;2023-03-11T01:22:13;11.10;;;2.58;;
78404;SDS011;67689;43.592;1.418;2023-03-11T01:24:39;14.73;;;2.85;;
78404;SDS011;67689;43.592;1.418;2023-03-11T01:27:05;9.90;;;2.15;;
78404;SDS011;67689;43.592;1.418;2023-03-11T01:29:30;12.05;;;2.70;;
78404;SDS011;67689;43.592;1.418;2023-03-11T01:31:56;11.30;;;2.72;;
78404;SDS011;67689;43.592;1.418;2023-03-11T01:34:21;9.07;;;2.22;;
78404;SDS011;67689;43.592;1.418;2023-03-11T01:36:46;12.45;;;2.20;;
78404;SDS011;67689;43.592;1.418;2023-03-11T01:39:12;8.77;;;2.20;;
78404;SDS011;67689;43.592;1.418;2023-03-11T01:41:37;9.27;;;2.60;;
78404;SDS011;67689;43.592;1.418;2023-03-11T01:44:03;11.55;;;2.63;;
78404;SDS011;67689;43.592;1.418;2023-03-11T01:49:17;13.15;;;2.47;;
78404;SDS011;67689;43.592;1.418;2023-03-11T01:51:43;10.10;;;2.63;;
78404;SDS011;67689;43.592;1.418;2023-03-11T01:54:22;14.00;;;2.60;;
78404;SDS011;67689;43.592;1.418;2023-03-11T01:56:50;11.75;;;2.58;;
78404;SDS011;67689;43.592;1.418;2023-03-11T01:59:18;10.35;;;2.47;;
78404;SDS011;67689;43.592;1.418;2023-03-11T02:01:55;11.18;;;2.40;;
78404;SDS011;67689;43.592;1.418;2023-03-11T02:04:26;10.55;;;2.20;;
78404;SDS011;67689;43.592;1.418;2023-03-11T02:06:52;10.45;;;2.28;;
78404;SDS011;67689;43.592;1.418;2023-03-11T02:09:17;6.70;;;1.98;;
78404;SDS011;67689;43.592;1.418;2023-03-11T02:11:42;10.13;;;2.30;;
78404;SDS011;67689;43.592;1.418;2023-03-11T02:14:08;9.23;;;2.53;;
78404;SDS011;67689;43.592;1.418;2023-03-11T02:16:33;9.00;;;2.15;;
78404;SDS011;67689;43.592;1.418;2023-03-11T02:18:59;11.23;;;2.60;;
78404;SDS011;67689;43.592;1.418;2023-03-11T02:21:32;10.75;;;2.22;;
78404;SDS011;67689;43.592;1.418;2023-03-11T02:24:03;8.88;;;2.13;;
78404;SDS011;67689;43.592;1.418;2023-03-11T02:26:40;8.38;;;2.20;;
78404;SDS011;67689;43.592;1.418;2023-03-11T02:29:13;13.93;;;2.53;;
78404;SDS011;67689;43.592;1.418;2023-03-11T02:31:38;9.80;;;2.20;;
78404;SDS011;67689;43.592;1.418;2023-03-11T02:34:04;9.80;;;2.33;;
78404;SDS011;67689;43.592;1.418;2023-03-11T02:36:40;13.18;;;2.17;;
78404;SDS011;67689;43.592;1.418;2023-03-11T02:39:06;12.30;;;2.58;;
78404;SDS011;67689;43.592;1.418;2023-03-11T02:41:33;9.77;;;2.42;;
78404;SDS011;67689;43.592;1.418;2023-03-11T02:44:01;8.52;;;2.05;;
78404;SDS011;67689;43.592;1.418;2023-03-11T02:46:27;9.18;;;2.05;;
78404;SDS011;67689;43.592;1.418;2023-03-11T02:48:52;9.50;;;2.20;;
78404;SDS011;67689;43.592;1.418;2023-03-11T02:51:18;7.95;;;2.00;;
78404;SDS011;67689;43.592;1.418;2023-03-11T02:53:45;8.55;;;2.00;;
78404;SDS011;67689;43.592;1.418;2023-03-11T02:56:12;10.50;;;2.35;;
78404;SDS011;67689;43.592;1.418;2023-03-11T02:58:37;11.73;;;2.00;;
78404;SDS011;67689;43.592;1.418;2023-03-11T03:01:03;7.85;;;1.80;;
78404;SDS011;67689;43.592;1.418;2023-03-11T03:03:28;9.25;;;1.98;;
78404;SDS011;67689;43.592;1.418;2023-03-11T03:05:54;8.90;;;1.98;;
78404;SDS011;67689;43.592;1.418;2023-03-11T03:08:19;8.40;;;2.33;;
78404;SDS011;67689;43.592;1.418;2023-03-11T03:10:44;9.05;;;2.20;;
78404;SDS011;67689;43.592;1.418;2023-03-11T03:13:10;8.38;;;2.10;;
78404;SDS011;67689;43.592;1.418;2023-03-11T03:15:36;7.47;;;2.03;;
78404;SDS011;67689;43.592;1.418;2023-03-11T03:18:01;12.60;;;2.45;;
78404;SDS011;67689;43.592;1.418;2023-03-11T03:20:27;6.97;;;1.83;;
78404;SDS011;67689;43.592;1.418;2023-03-11T03:22:53;8.05;;;2.10;;
78404;SDS011;67689;43.592;1.418;2023-03-11T03:25:18;8.63;;;2.00;;
78404;SDS011;67689;43.592;1.418;2023-03-11T03:27:43;14.40;;;2.38;;
78404;SDS011;67689;43.592;1.418;2023-03-11T03:30:09;10.60;;;2.00;;
78404;SDS011;67689;43.592;1.418;2023-03-11T03:32:35;9.73;;;1.88;;
78404;SDS011;67689;43.592;1.418;2023-03-11T03:35:01;8.15;;;1.98;;
78404;SDS011;67689;43.592;1.418;2023-03-11T03:37:27;10.73;;;2.40;;
78404;SDS011;67689;43.592;1.418;2023-03-11T03:39:53;11.70;;;1.90;;
78404;SDS011;67689;43.592;1.418;2023-03-11T03:42:19;8.95;;;2.05;;
78404;SDS011;67689;43.592;1.418;2023-03-11T03:44:45;6.75;;;1.75;;
78404;SDS011;67689;43.592;1.418;2023-03-11T03:47:10;10.18;;;2.17;;
78404;SDS011;67689;43.592;1.418;2023-03-11T03:49:36;8.15;;;1.92;;
78404;SDS011;67689;43.592;1.418;2023-03-11T03:52:03;9.98;;;1.90;;
78404;SDS011;67689;43.592;1.418;2023-03-11T03:54:29;11.63;;;2.00;;
78404;SDS011;67689;43.592;1.418;2023-03-11T03:56:55;9.20;;;1.90;;
78404;SDS011;67689;43.592;1.418;2023-03-11T03:59:20;10.57;;;2.20;;
78404;SDS011;67689;43.592;1.418;2023-03-11T04:01:45;9.02;;;1.92;;
78404;SDS011;67689;43.592;1.418;2023-03-11T04:04:11;10.00;;;2.40;;
78404;SDS011;67689;43.592;1.418;2023-03-11T04:06:36;7.57;;;2.05;;
78404;SDS011;67689;43.592;1.418;2023-03-11T04:09:01;10.50;;;2.35;;
78404;SDS011;67689;43.592;1.418;2023-03-11T04:11:27;9.43;;;1.95;;
78404;SDS011;67689;43.592;1.418;2023-03-11T04:13:53;9.98;;;2.00;;
78404;SDS011;67689;43.592;1.418;2023-03-11T04:16:19;12.45;;;2.05;;
78404;SDS011;67689;43.592;1.418;2023-03-11T04:18:47;9.45;;;2.25;;
78404;SDS011;67689;43.592;1.418;2023-03-11T04:21:12;10.38;;;2.08;;
78404;SDS011;67689;43.592;1.418;2023-03-11T04:23:38;10.85;;;1.98;;
78404;SDS011;67689;43.592;1.418;2023-03-11T04:26:03;9.45;;;2.08;;
78404;SDS011;67689;43.592;1.418;2023-03-11T04:28:29;7.95;;;1.90;;
78404;SDS011;67689;43.592;1.418;2023-03-11T04:30:54;10.73;;;2.03;;
78404;SDS011;67689;43.592;1.418;2023-03-11T04:33:20;11.20;;;2.20;;
78404;SDS011;67689;43.592;1.418;2023-03-11T04:35:45;8.07;;;2.03;;
78404;SDS011;67689;43.592;1.418;2023-03-11T04:38:10;8.70;;;2.00;;
78404;SDS011;67689;43.592;1.418;2023-03-11T04:40:39;10.73;;;1.90;;
78404;SDS011;67689;43.592;1.418;2023-03-11T04:43:04;10.50;;;2.10;;
78404;SDS011;67689;43.592;1.418;2023-03-11T04:45:30;12.65;;;2.05;;
78404;SDS011;67689;43.592;1.418;2023-03-11T04:47:55;9.90;;;2.30;;
78404;SDS011;67689;43.592;1.418;2023-03-11T04:50:20;10.88;;;2.08;;
78404;SDS011;67689;43.592;1.418;2023-03-11T04:52:46;11.85;;;2.10;;
78404;SDS011;67689;43.592;1.418;2023-03-11T04:55:11;6.47;;;2.10;;
78404;SDS011;67689;43.592;1.418;2023-03-11T04:57:38;9.75;;;2.20;;
78404;SDS011;67689;43.592;1.418;2023-03-11T05:00:04;10.25;;;2.20;;
78404;SDS011;67689;43.592;1.418;2023-03-11T05:02:33;12.32;;;2.20;;
78404;SDS011;67689;43.592;1.418;2023-03-11T05:04:59;10.48;;;2.20;;
78404;SDS011;67689;43.592;1.418;2023-03-11T05:07:24;9.38;;;1.92;;
78404;SDS011;67689;43.592;1.418;2023-03-11T05:09:49;11.05;;;2.20;;
78404;SDS011;67689;43.592;1.418;2023-03-11T05:12:15;8.18;;;1.85;;
78404;SDS011;67689;43.592;1.418;2023-03-11T05:14:40;8.48;;;2.17;;
78404;SDS011;67689;43.592;1.418;2023-03-11T05:17:06;7.38;;;1.83;;
78404;SDS011;67689;43.592;1.418;2023-03-11T05:19:31;9.82;;;2.00;;
78404;SDS011;67689;43.592;1.418;2023-03-11T05:21:59;9.20;;;1.90;;
78404;SDS011;67689;43.592;1.418;2023-03-11T05:24:26;12.05;;;2.50;;
78404;SDS011;67689;43.592;1.418;2023-03-11T05:26:51;16.15;;;2.45;;
78404;SDS011;67689;43.592;1.418;2023-03-11T05:29:17;10.77;;;2.30;;
78404;SDS011;67689;43.592;1.418;2023-03-11T05:31:43;8.10;;;1.90;;
78404;SDS011;67689;43.592;1.418;2023-03-11T05:34:08;10.52;;;2.08;;
78404;SDS011;67689;43.592;1.418;2023-03-11T05:36:33;9.50;;;1.90;;
78404;SDS011;67689;43.592;1.418;2023-03-11T05:38:59;12.32;;;2.30;;
78404;SDS011;67689;43.592;1.418;2023-03-11T05:41:24;13.38;;;2.50;;
78404;SDS011;67689;43.592;1.418;2023-03-11T05:43:49;9.65;;;2.45;;
78404;SDS011;67689;43.592;1.418;2023-03-11T05:46:15;16.15;;;2.40;;
78404;SDS011;67689;43.592;1.418;2023-03-11T05:48:40;8.73;;;2.20;;
78404;SDS011;67689;43.592;1.418;2023-03-11T05:51:06;10.43;;;2.70;;
78404;SDS011;67689;43.592;1.418;2023-03-11T05:53:32;9.75;;;2.00;;
78404;SDS011;67689;43.592;1.418;2023-03-11T05:55:58;10.48;;;1.95;;
78404;SDS011;67689;43.592;1.418;2023-03-11T05:58:24;11.65;;;2.50;;
78404;SDS011;67689;43.592;1.418;2023-03-11T06:00:50;12.65;;;2.45;;
78404;SDS011;67689;43.592;1.418;2023-03-11T06:03:15;11.13;;;2.30;;
78404;SDS011;67689;43.592;1.418;2023-03-11T06:05:47;10.75;;;2.22;;
78404;SDS011;67689;43.592;1.418;2023-03-11T06:08:13;13.23;;;2.40;;
78404;SDS011;67689;43.592;1.418;2023-03-11T06:10:39;11.95;;;2.50;;
78404;SDS011;67689;43.592;1.418;2023-03-11T06:13:04;9.98;;;2.20;;
78404;SDS011;67689;43.592;1.418;2023-03-11T06:15:32;15.10;;;2.38;;
78404;SDS011;67689;43.592;1.418;2023-03-11T06:17:58;12.48;;;2.35;;
78404;SDS011;67689;43.592;1.418;2023-03-11T06:20:23;13.85;;;2.20;;
78404;SDS011;67689;43.592;1.418;2023-03-11T06:22:49;12.82;;;2.40;;
78404;SDS011;67689;43.592;1.418;2023-03-11T06:25:15;11.05;;;2.10;;
78404;SDS011;67689;43.592;1.418;2023-03-11T06:27:40;15.90;;;2.22;;
78404;SDS011;67689;43.592;1.418;2023-03-11T06:30:06;9.70;;;2.30;;
78404;SDS011;67689;43.592;1.418;2023-03-11T06:32:31;9.00;;;2.28;;
78404;SDS011;67689;43.592;1.418;2023-03-11T06:34:58;9.65;;;2.55;;
78404;SDS011;67689;43.592;1.418;2023-03-11T06:37:24;10.18;;;2.33;;
78404;SDS011;67689;43.592;1.418;2023-03-11T06:39:53;9.85;;;2.15;;
78404;SDS011;67689;43.592;1.418;2023-03-11T06:42:19;11.35;;;2.25;;
78404;SDS011;67689;43.592;1.418;2023-03-11T06:44:47;9.15;;;2.03;;
78404;SDS011;67689;43.592;1.418;2023-03-11T06:47:13;11.40;;;2.65;;
78404;SDS011;67689;43.592;1.418;2023-03-11T06:49:38;11.32;;;2.40;;
78404;SDS011;67689;43.592;1.418;2023-03-11T06:52:06;14.85;;;2.72;;
78404;SDS011;67689;43.592;1.418;2023-03-11T06:54:32;10.02;;;2.40;;
78404;SDS011;67689;43.592;1.418;2023-03-11T06:56:57;9.65;;;2.38;;
78404;SDS011;67689;43.592;1.418;2023-03-11T06:59:22;12.77;;;2.38;;
78404;SDS011;67689;43.592;1.418;2023-03-11T07:01:48;11.82;;;2.47;;
78404;SDS011;67689;43.592;1.418;2023-03-11T07:04:13;11.90;;;2.33;;
78404;SDS011;67689;43.592;1.418;2023-03-11T07:06:39;11.57;;;2.15;;
78404;SDS011;67689;43.592;1.418;2023-03-11T07:09:05;10.77;;;2.72;;
78404;SDS011;67689;43.592;1.418;2023-03-11T07:11:30;9.35;;;2.25;;
78404;SDS011;67689;43.592;1.418;2023-03-11T07:13:56;16.17;;;2.80;;
78404;SDS011;67689;43.592;1.418;2023-03-11T07:16:22;10.18;;;2.47;;
78404;SDS011;67689;43.592;1.418;2023-03-11T07:18:54;15.85;;;2.88;;
78404;SDS011;67689;43.592;1.418;2023-03-11T07:21:23;13.10;;;2.35;;
78404;SDS011;67689;43.592;1.418;2023-03-11T07:23:53;15.57;;;2.67;;
78404;SDS011;67689;43.592;1.418;2023-03-11T07:26:19;12.80;;;3.03;;
78404;SDS011;67689;43.592;1.418;2023-03-11T07:28:45;12.60;;;2.83;;
78404;SDS011;67689;43.592;1.418;2023-03-11T07:31:17;16.27;;;2.78;;
78404;SDS011;67689;43.592;1.418;2023-03-11T07:33:44;10.70;;;2.50;;
78404;SDS011;67689;43.592;1.418;2023-03-11T07:36:13;10.77;;;2.38;;
78404;SDS011;67689;43.592;1.418;2023-03-11T07:38:41;11.05;;;2.80;;
78404;SDS011;67689;43.592;1.418;2023-03-11T07:41:07;11.90;;;2.35;;
78404;SDS011;67689;43.592;1.418;2023-03-11T07:43:33;14.18;;;2.50;;
78404;SDS011;67689;43.592;1.418;2023-03-11T07:46:05;15.15;;;2.85;;
78404;SDS011;67689;43.592;1.418;2023-03-11T07:48:32;14.15;;;2.78;;
78404;SDS011;67689;43.592;1.418;2023-03-11T07:51:01;10.77;;;2.65;;
78404;SDS011;67689;43.592;1.418;2023-03-11T07:53:31;15.75;;;3.08;;
78404;SDS011;67689;43.592;1.418;2023-03-11T07:55:57;13.63;;;2.72;;
78404;SDS011;67689;43.592;1.418;2023-03-11T07:58:23;15.57;;;3.25;;
78404;SDS011;67689;43.592;1.418;2023-03-11T08:00:49;9.48;;;2.50;;
78404;SDS011;67689;43.592;1.418;2023-03-11T08:03:14;16.35;;;2.72;;
78404;SDS011;67689;43.592;1.418;2023-03-11T08:05:39;11.90;;;2.70;;
78404;SDS011;67689;43.592;1.418;2023-03-11T08:08:05;15.32;;;2.65;;
78404;SDS011;67689;43.592;1.418;2023-03-11T08:10:30;8.27;;;2.30;;
78404;SDS011;67689;43.592;1.418;2023-03-11T08:12:55;10.43;;;2.28;;
78404;SDS011;67689;43.592;1.418;2023-03-11T08:15:21;13.13;;;2.95;;
78404;SDS011;67689;43.592;1.418;2023-03-11T08:17:46;12.82;;;2.42;;
78404;SDS011;67689;43.592;1.418;2023-03-11T08:20:12;15.63;;;2.88;;
78404;SDS011;67689;43.592;1.418;2023-03-11T08:22:37;14.02;;;2.85;;
78404;SDS011;67689;43.592;1.418;2023-03-11T08:25:03;11.63;;;3.05;;
78404;SDS011;67689;43.592;1.418;2023-03-11T08:27:28;14.43;;;2.92;;
78404;SDS011;67689;43.592;1.418;2023-03-11T08:29:54;10.27;;;2.60;;
78404;SDS011;67689;43.592;1.418;2023-03-11T08:32:19;13.13;;;3.00;;
78404;SDS011;67689;43.592;1.418;2023-03-11T08:34:45;16.75;;;3.22;;
78404;SDS011;67689;43.592;1.418;2023-03-11T08:37:10;12.93;;;2.85;;
78404;SDS011;67689;43.592;1.418;2023-03-11T08:39:35;12.52;;;2.53;;
78404;SDS011;67689;43.592;1.418;2023-03-11T08:42:02;11.05;;;2.90;;
78404;SDS011;67689;43.592;1.418;2023-03-11T08:44:28;11.73;;;2.88;;
78404;SDS011;67689;43.592;1.418;2023-03-11T08:46:53;11.80;;;2.92;;
78404;SDS011;67689;43.592;1.418;2023-03-11T08:49:19;11.15;;;2.72;;
78404;SDS011;67689;43.592;1.418;2023-03-11T08:51:44;13.38;;;3.03;;
78404;SDS011;67689;43.592;1.418;2023-03-11T08:54:10;11.65;;;2.95;;
78404;SDS011;67689;43.592;1.418;2023-03-11T08:56:35;14.05;;;3.05;;
78404;SDS011;67689;43.592;1.418;2023-03-11T08:59:00;12.77;;;2.53;;
78404;SDS011;67689;43.592;1.418;2023-03-11T09:01:26;11.50;;;2.60;;
78404;SDS011;67689;43.592;1.418;2023-03-11T09:03:53;12.43;;;3.25;;
78404;SDS011;67689;43.592;1.418;2023-03-11T09:06:19;15.40;;;2.63;;
78404;SDS011;67689;43.592;1.418;2023-03-11T09:08:44;10.23;;;2.78;;
78404;SDS011;67689;43.592;1.418;2023-03-11T09:11:10;13.18;;;3.00;;
78404;SDS011;67689;43.592;1.418;2023-03-11T09:13:37;9.93;;;2.38;;
78404;SDS011;67689;43.592;1.418;2023-03-11T09:16:05;11.02;;;3.10;;
78404;SDS011;67689;43.592;1.418;2023-03-11T09:18:31;13.88;;;3.10;;
78404;SDS011;67689;43.592;1.418;2023-03-11T09:20:56;10.80;;;2.92;;
78404;SDS011;67689;43.592;1.418;2023-03-11T09:23:24;13.45;;;2.78;;
78404;SDS011;67689;43.592;1.418;2023-03-11T09:25:50;12.48;;;3.08;;
78404;SDS011;67689;43.592;1.418;2023-03-11T09:28:15;10.25;;;2.90;;
78404;SDS011;67689;43.592;1.418;2023-03-11T09:30:40;12.50;;;2.60;;
78404;SDS011;67689;43.592;1.418;2023-03-11T09:33:06;12.00;;;2.88;;
78404;SDS011;67689;43.592;1.418;2023-03-11T09:35:31;11.05;;;2.60;;
78404;SDS011;67689;43.592;1.418;2023-03-11T09:37:57;15.95;;;3.25;;
78404;SDS011;67689;43.592;1.418;2023-03-11T09:40:26;10.68;;;2.40;;
78404;SDS011;67689;43.592;1.418;2023-03-11T09:46:00;11.32;;;2.63;;
78404;SDS011;67689;43.592;1.418;2023-03-11T09:48:33;11.35;;;2.70;;
78404;SDS011;67689;43.592;1.418;2023-03-11T09:51:08;9.07;;;2.70;;
78404;SDS011;67689;43.592;1.418;2023-03-11T09:53:44;10.68;;;2.50;;
78404;SDS011;67689;43.592;1.418;2023-03-11T09:56:14;10.07;;;2.83;;
78404;SDS011;67689;43.592;1.418;2023-03-11T09:58:48;10.63;;;2.72;;
78404;SDS011;67689;43.592;1.418;2023-03-11T10:04:10;11.43;;;3.40;;
78404;SDS011;67689;43.592;1.418;2023-03-11T10:06:39;11.50;;;2.67;;
78404;SDS011;67689;43.592;1.418;2023-03-11T10:09:18;9.30;;;2.83;;
78404;SDS011;67689;43.592;1.418;2023-03-11T10:20:26;6.30;;;2.10;;
78404;SDS011;67689;43.592;1.418;2023-03-11T10:25:46;8.27;;;2.10;;
78404;SDS011;67689;43.592;1.418;2023-03-11T10:28:19;9.80;;;2.45;;
78404;SDS011;67689;43.592;1.418;2023-03-11T10:30:47;7.18;;;2.20;;
78404;SDS011;67689;43.592;1.418;2023-03-11T10:33:33;7.57;;;1.98;;
78404;SDS011;67689;43.592;1.418;2023-03-11T10:36:03;5.95;;;1.60;;
78404;SDS011;67689;43.592;1.418;2023-03-11T10:38:32;6.75;;;1.60;;
78404;SDS011;67689;43.592;1.418;2023-03-11T10:41:00;5.85;;;1.60;;
78404;SDS011;67689;43.592;1.418;2023-03-11T10:43:34;4.25;;;1.42;;
78404;SDS011;67689;43.592;1.418;2023-03-11T10:46:03;5.38;;;1.60;;
78404;SDS011;67689;43.592;1.418;2023-03-11T10:48:33;4.93;;;1.70;;
78404;SDS011;67689;43.592;1.418;2023-03-11T10:53:28;3.70;;;1.40;;
78404;SDS011;67689;43.592;1.418;2023-03-11T10:55:55;5.15;;;1.42;;
78404;SDS011;67689;43.592;1.418;2023-03-11T10:58:23;5.88;;;1.70;;
78404;SDS011;67689;43.592;1.418;2023-03-11T11:01:00;4.07;;;1.30;;
78404;SDS011;67689;43.592;1.418;2023-03-11T11:03:40;4.53;;;1.25;;
78404;SDS011;67689;43.592;1.418;2023-03-11T11:06:15;2.47;;;1.27;;
78404;SDS011;67689;43.592;1.418;2023-03-11T11:08:43;2.90;;;1.10;;
78404;SDS011;67689;43.592;1.418;2023-03-11T11:11:19;3.58;;;1.20;;
78404;SDS011;67689;43.592;1.418;2023-03-11T11:13:57;3.75;;;1.50;;
78404;SDS011;67689;43.592;1.418;2023-03-11T11:16:24;4.60;;;1.23;;
78404;SDS011;67689;43.592;1.418;2023-03-11T11:18:56;3.70;;;1.35;;
78404;SDS011;67689;43.592;1.418;2023-03-11T11:21:30;3.90;;;1.23;;
78404;SDS011;67689;43.592;1.418;2023-03-11T11:24:02;3.78;;;1.27;;
78404;SDS011;67689;43.592;1.418;2023-03-11T11:26:32;2.90;;;1.13;;
78404;SDS011;67689;43.592;1.418;2023-03-11T11:29:12;4.30;;;1.30;;
78404;SDS011;67689;43.592;1.418;2023-03-11T11:31:39;3.22;;;1.40;;
78404;SDS011;67689;43.592;1.418;2023-03-11T11:36:50;2.50;;;1.02;;
78404;SDS011;67689;43.592;1.418;2023-03-11T11:39:16;2.03;;;1.02;;
78404;SDS011;67689;43.592;1.418;2023-03-11T11:41:44;4.05;;;1.30;;
78404;SDS011;67689;43.592;1.418;2023-03-11T11:44:10;3.40;;;1.20;;
78404;SDS011;67689;43.592;1.418;2023-03-11T11:46:40;3.38;;;1.20;;
78404;SDS011;67689;43.592;1.418;2023-03-11T11:51:50;2.75;;;1.30;;
78404;SDS011;67689;43.592;1.418;2023-03-11T11:57:12;2.50;;;1.00;;
78404;SDS011;67689;43.592;1.418;2023-03-11T11:59:42;3.22;;;1.00;;
78404;SDS011;67689;43.592;1.418;2023-03-11T12:05:16;7.15;;;2.75;;
78404;SDS011;67689;43.592;1.418;2023-03-11T12:07:59;3.35;;;1.40;;
78404;SDS011;67689;43.592;1.418;2023-03-11T12:27:04;4.57;;;1.35;;
78404;SDS011;67689;43.592;1.418;2023-03-11T12:29:39;4.20;;;1.40;;
78404;SDS011;67689;43.592;1.418;2023-03-11T12:32:07;3.83;;;1.40;;
78404;SDS011;67689;43.592;1.418;2023-03-11T12:34:34;6.43;;;1.77;;
78404;SDS011;67689;43.592;1.418;2023-03-11T12:37:00;5.18;;;1.38;;
78404;SDS011;67689;43.592;1.418;2023-03-11T12:39:30;4.28;;;1.48;;
78404;SDS011;67689;43.592;1.418;2023-03-11T12:44:38;2.92;;;1.20;;
78404;SDS011;67689;43.592;1.418;2023-03-11T12:49:33;4.15;;;1.48;;
78404;SDS011;67689;43.592;1.418;2023-03-11T13:02:41;3.40;;;1.20;;
78404;SDS011;67689;43.592;1.418;2023-03-11T13:07:56;4.07;;;1.58;;
78404;SDS011;67689;43.592;1.418;2023-03-11T13:12:52;3.65;;;1.42;;
78404;SDS011;67689;43.592;1.418;2023-03-11T13:25:39;3.92;;;1.42;;
78404;SDS011;67689;43.592;1.418;2023-03-11T13:31:03;3.38;;;1.25;;
78404;SDS011;67689;43.592;1.418;2023-03-11T13:36:17;3.70;;;1.20;;
78404;SDS011;67689;43.592;1.418;2023-03-11T13:41:47;3.28;;;1.10;;
78404;SDS011;67689;43.592;1.418;2023-03-11T13:44:23;3.60;;;1.10;;
78404;SDS011;67689;43.592;1.418;2023-03-11T13:46:53;3.88;;;1.50;;
78404;SDS011;67689;43.592;1.418;2023-03-11T13:52:15;4.38;;;1.30;;
78404;SDS011;67689;43.592;1.418;2023-03-11T13:54:44;4.30;;;1.60;;
78404;SDS011;67689;43.592;1.418;2023-03-11T13:57:22;3.22;;;1.25;;
78404;SDS011;67689;43.592;1.418;2023-03-11T13:59:51;3.92;;;1.58;;
78404;SDS011;67689;43.592;1.418;2023-03-11T14:02:19;4.10;;;1.20;;
78404;SDS011;67689;43.592;1.418;2023-03-11T14:04:49;3.90;;;1.30;;
78404;SDS011;67689;43.592;1.418;2023-03-11T14:07:30;5.30;;;1.50;;
78404;SDS011;67689;43.592;1.418;2023-03-11T14:12:43;3.35;;;1.20;;
78404;SDS011;67689;43.592;1.418;2023-03-11T14:15:08;2.47;;;1.10;;
78404;SDS011;67689;43.592;1.418;2023-03-11T14:17:38;3.17;;;1.30;;
78404;SDS011;67689;43.592;1.418;2023-03-11T14:20:17;3.42;;;1.30;;
78404;SDS011;67689;43.592;1.418;2023-03-11T14:22:47;2.92;;;1.27;;
78404;SDS011;67689;43.592;1.418;2023-03-11T14:25:24;3.35;;;1.40;;
78404;SDS011;67689;43.592;1.418;2023-03-11T14:28:00;3.80;;;1.50;;
78404;SDS011;67689;43.592;1.418;2023-03-11T14:33:03;3.55;;;1.25;;
78404;SDS011;67689;43.592;1.418;2023-03-11T14:35:31;3.80;;;1.33;;
78404;SDS011;67689;43.592;1.418;2023-03-11T14:37:57;3.75;;;1.40;;
78404;SDS011;67689;43.592;1.418;2023-03-11T14:42:57;3.17;;;1.60;;
78404;SDS011;67689;43.592;1.418;2023-03-11T14:45:26;3.03;;;1.40;;
78404;SDS011;67689;43.592;1.418;2023-03-11T14:50:25;5.78;;;1.75;;
78404;SDS011;67689;43.592;1.418;2023-03-11T14:55:34;6.18;;;2.28;;
78404;SDS011;67689;43.592;1.418;2023-03-11T14:58:21;5.55;;;1.70;;
78404;SDS011;67689;43.592;1.418;2023-03-11T15:03:38;5.13;;;1.60;;
78404;SDS011;67689;43.592;1.418;2023-03-11T15:06:13;6.13;;;1.83;;
78404;SDS011;67689;43.592;1.418;2023-03-11T15:08:45;3.30;;;1.50;;
78404;SDS011;67689;43.592;1.418;2023-03-11T15:13:38;4.22;;;1.60;;
78404;SDS011;67689;43.592;1.418;2023-03-11T15:16:06;6.00;;;1.63;;
78404;SDS011;67689;43.592;1.418;2023-03-11T15:18:44;4.82;;;1.70;;
78404;SDS011;67689;43.592;1.418;2023-03-11T15:21:13;4.10;;;1.50;;
78404;SDS011;67689;43.592;1.418;2023-03-11T15:23:45;4.38;;;1.63;;
78404;SDS011;67689;43.592;1.418;2023-03-11T15:26:25;4.70;;;1.60;;
78404;SDS011;67689;43.592;1.418;2023-03-11T15:28:57;3.92;;;1.52;;
78404;SDS011;67689;43.592;1.418;2023-03-11T15:33:49;3.33;;;1.30;;
78404;SDS011;67689;43.592;1.418;2023-03-11T15:39:56;4.25;;;1.50;;
78404;SDS011;67689;43.592;1.418;2023-03-11T15:46:55;4.60;;;1.60;;
78404;SDS011;67689;43.592;1.418;2023-03-11T15:49:23;3.15;;;1.35;;
78404;SDS011;67689;43.592;1.418;2023-03-11T15:51:49;4.03;;;1.60;;
78404;SDS011;67689;43.592;1.418;2023-03-11T15:54:14;4.20;;;1.60;;
78404;SDS011;67689;43.592;1.418;2023-03-11T15:56:40;3.17;;;1.30;;
78404;SDS011;67689;43.592;1.418;2023-03-11T15:59:05;3.08;;;1.33;;
78404;SDS011;67689;43.592;1.418;2023-03-11T16:01:31;2.33;;;1.00;;
78404;SDS011;67689;43.592;1.418;2023-03-11T16:03:56;3.65;;;1.30;;
78404;SDS011;67689;43.592;1.418;2023-03-11T16:06:21;3.45;;;1.27;;
78404;SDS011;67689;43.592;1.418;2023-03-11T16:08:47;3.08;;;1.38;;
78404;SDS011;67689;43.592;1.418;2023-03-11T16:11:13;5.90;;;1.70;;
78404;SDS011;67689;43.592;1.418;2023-03-11T16:13:39;4.03;;;1.45;;
78404;SDS011;67689;43.592;1.418;2023-03-11T16:16:04;2.97;;;1.40;;
78404;SDS011;67689;43.592;1.418;2023-03-11T16:18:30;2.65;;;1.23;;
78404;SDS011;67689;43.592;1.418;2023-03-11T16:20:56;3.42;;;1.40;;
78404;SDS011;67689;43.592;1.418;2023-03-11T16:23:22;2.95;;;1.30;;
78404;SDS011;67689;43.592;1.418;2023-03-11T16:25:50;3.42;;;1.30;;
78404;SDS011;67689;43.592;1.418;2023-03-11T16:28:17;4.85;;;1.65;;
78404;SDS011;67689;43.592;1.418;2023-03-11T16:30:43;5.07;;;1.42;;
78404;SDS011;67689;43.592;1.418;2023-03-11T16:33:08;12.15;;;5.57;;
78404;SDS011;67689;43.592;1.418;2023-03-11T16:35:34;6.13;;;2.60;;
78404;SDS011;67689;43.592;1.418;2023-03-11T16:38:00;6.68;;;2.47;;
78404;SDS011;67689;43.592;1.418;2023-03-11T16:40:26;6.55;;;1.83;;
78404;SDS011;67689;43.592;1.418;2023-03-11T16:43:00;5.97;;;1.80;;
78404;SDS011;67689;43.592;1.418;2023-03-11T16:45:26;4.95;;;1.48;;